sensor_id;sensor_type;location;lat;lon;timestamp;temperature;humidity
12309;DHT22;6217;48.150;17.142;2023-07-22T00:02:42;21.60;87.50
12309;DHT22;6217;48.150;17.142;2023-07-22T00:06:48;21.50;87.90
12309;DHT22;6217;48.150;17.142;2023-07-22T00:10:54;21.50;88.10
12309;DHT22;6217;48.150;17.142;2023-07-22T00:15:00;21.50;88.10
12309;DHT22;6217;48.150;17.142;2023-07-22T00:19:06;21.50;88.20
12309;DHT22;6217;48.150;17.142;2023-07-22T00:23:12;21.50;88.20
12309;DHT22;6217;48.150;17.142;2023-07-22T00:27:20;21.60;87.90
12309;DHT22;6217;48.150;17.142;2023-07-22T00:31:26;21.50;87.90
12309;DHT22;6217;48.150;17.142;2023-07-22T00:35:33;21.50;88.20
12309;DHT22;6217;48.150;17.142;2023-07-22T00:39:39;21.50;88.50
12309;DHT22;6217;48.150;17.142;2023-07-22T00:43:45;21.50;88.60
12309;DHT22;6217;48.150;17.142;2023-07-22T00:47:51;21.40;88.90
12309;DHT22;6217;48.150;17.142;2023-07-22T00:52:00;21.30;89.30
12309;DHT22;6217;48.150;17.142;2023-07-22T00:56:08;21.20;89.80
12309;DHT22;6217;48.150;17.142;2023-07-22T01:00:14;21.20;90.00
12309;DHT22;6217;48.150;17.142;2023-07-22T01:04:23;21.20;90.00
12309;DHT22;6217;48.150;17.142;2023-07-22T01:08:29;21.20;90.00
12309;DHT22;6217;48.150;17.142;2023-07-22T01:12:36;21.20;89.80
12309;DHT22;6217;48.150;17.142;2023-07-22T01:16:42;21.30;89.30
12309;DHT22;6217;48.150;17.142;2023-07-22T01:20:48;21.30;89.00
12309;DHT22;6217;48.150;17.142;2023-07-22T01:24:54;21.40;88.50
12309;DHT22;6217;48.150;17.142;2023-07-22T01:29:04;21.40;88.10
12309;DHT22;6217;48.150;17.142;2023-07-22T01:33:11;21.40;87.90
12309;DHT22;6217;48.150;17.142;2023-07-22T01:37:17;21.50;87.40
12309;DHT22;6217;48.150;17.142;2023-07-22T01:41:24;21.50;87.00
12309;DHT22;6217;48.150;17.142;2023-07-22T01:45:30;21.50;86.60
12309;DHT22;6217;48.150;17.142;2023-07-22T01:49:36;21.50;86.00
12309;DHT22;6217;48.150;17.142;2023-07-22T01:53:42;21.40;85.60
12309;DHT22;6217;48.150;17.142;2023-07-22T01:57:48;21.40;85.20
12309;DHT22;6217;48.150;17.142;2023-07-22T02:01:54;21.40;84.80
12309;DHT22;6217;48.150;17.142;2023-07-22T02:06:03;21.40;84.30
12309;DHT22;6217;48.150;17.142;2023-07-22T02:10:10;21.40;83.60
12309;DHT22;6217;48.150;17.142;2023-07-22T02:14:16;21.30;83.10
12309;DHT22;6217;48.150;17.142;2023-07-22T02:18:21;21.30;82.80
12309;DHT22;6217;48.150;17.142;2023-07-22T02:22:27;21.30;82.30
12309;DHT22;6217;48.150;17.142;2023-07-22T02:26:34;21.30;81.90
12309;DHT22;6217;48.150;17.142;2023-07-22T02:30:40;21.30;81.70
12309;DHT22;6217;48.150;17.142;2023-07-22T02:34:45;21.30;81.50
12309;DHT22;6217;48.150;17.142;2023-07-22T02:38:51;21.30;81.20
12309;DHT22;6217;48.150;17.142;2023-07-22T02:42:57;21.20;80.80
12309;DHT22;6217;48.150;17.142;2023-07-22T02:47:03;21.20;80.70
12309;DHT22;6217;48.150;17.142;2023-07-22T02:51:10;21.20;80.40
12309;DHT22;6217;48.150;17.142;2023-07-22T02:55:18;21.20;80.30
12309;DHT22;6217;48.150;17.142;2023-07-22T02:59:24;21.10;80.10
12309;DHT22;6217;48.150;17.142;2023-07-22T03:03:30;21.10;80.20
12309;DHT22;6217;48.150;17.142;2023-07-22T03:07:39;21.10;80.10
12309;DHT22;6217;48.150;17.142;2023-07-22T03:11:46;21.10;79.90
12309;DHT22;6217;48.150;17.142;2023-07-22T03:15:52;21.00;79.80
12309;DHT22;6217;48.150;17.142;2023-07-22T03:19:58;21.00;79.90
12309;DHT22;6217;48.150;17.142;2023-07-22T03:24:04;21.00;79.70
12309;DHT22;6217;48.150;17.142;2023-07-22T03:28:11;21.00;79.60
12309;DHT22;6217;48.150;17.142;2023-07-22T03:32:17;21.00;79.40
12309;DHT22;6217;48.150;17.142;2023-07-22T03:36:23;21.00;79.10
12309;DHT22;6217;48.150;17.142;2023-07-22T03:40:29;21.00;78.80
12309;DHT22;6217;48.150;17.142;2023-07-22T03:44:35;21.00;78.60
12309;DHT22;6217;48.150;17.142;2023-07-22T03:48:41;21.00;78.50
12309;DHT22;6217;48.150;17.142;2023-07-22T03:52:47;21.10;78.20
12309;DHT22;6217;48.150;17.142;2023-07-22T03:56:53;21.00;78.00
12309;DHT22;6217;48.150;17.142;2023-07-22T04:00:59;21.00;77.90
12309;DHT22;6217;48.150;17.142;2023-07-22T04:05:06;21.10;77.80
12309;DHT22;6217;48.150;17.142;2023-07-22T04:09:12;21.10;77.60
12309;DHT22;6217;48.150;17.142;2023-07-22T04:13:18;21.10;77.40
12309;DHT22;6217;48.150;17.142;2023-07-22T04:17:24;21.10;77.30
12309;DHT22;6217;48.150;17.142;2023-07-22T04:21:31;21.10;77.00
12309;DHT22;6217;48.150;17.142;2023-07-22T04:25:43;21.10;76.80
12309;DHT22;6217;48.150;17.142;2023-07-22T04:29:50;21.10;76.60
12309;DHT22;6217;48.150;17.142;2023-07-22T04:33:57;21.10;76.60
12309;DHT22;6217;48.150;17.142;2023-07-22T04:38:04;21.10;76.40
12309;DHT22;6217;48.150;17.142;2023-07-22T04:42:09;21.20;76.10
12309;DHT22;6217;48.150;17.142;2023-07-22T04:46:15;21.20;75.60
12309;DHT22;6217;48.150;17.142;2023-07-22T04:50:21;21.30;75.20
12309;DHT22;6217;48.150;17.142;2023-07-22T04:54:28;21.30;74.70
12309;DHT22;6217;48.150;17.142;2023-07-22T04:58:34;21.40;74.40
12309;DHT22;6217;48.150;17.142;2023-07-22T05:02:40;21.50;74.00
12309;DHT22;6217;48.150;17.142;2023-07-22T05:06:46;21.60;73.60
12309;DHT22;6217;48.150;17.142;2023-07-22T05:10:52;21.60;73.10
12309;DHT22;6217;48.150;17.142;2023-07-22T05:14:58;21.70;72.70
12309;DHT22;6217;48.150;17.142;2023-07-22T05:19:04;21.70;72.30
12309;DHT22;6217;48.150;17.142;2023-07-22T05:23:11;21.70;71.80
12309;DHT22;6217;48.150;17.142;2023-07-22T05:27:17;21.80;71.40
12309;DHT22;6217;48.150;17.142;2023-07-22T05:31:23;21.80;71.10
12309;DHT22;6217;48.150;17.142;2023-07-22T05:35:29;21.90;70.70
12309;DHT22;6217;48.150;17.142;2023-07-22T05:39:35;21.90;70.40
12309;DHT22;6217;48.150;17.142;2023-07-22T05:43:41;22.00;70.20
12309;DHT22;6217;48.150;17.142;2023-07-22T05:47:47;22.10;70.10
12309;DHT22;6217;48.150;17.142;2023-07-22T05:51:53;22.20;69.60
12309;DHT22;6217;48.150;17.142;2023-07-22T05:55:59;22.20;69.10
12309;DHT22;6217;48.150;17.142;2023-07-22T06:00:06;22.30;68.30
12309;DHT22;6217;48.150;17.142;2023-07-22T06:04:17;22.40;68.10
12309;DHT22;6217;48.150;17.142;2023-07-22T06:08:23;22.60;68.10
12309;DHT22;6217;48.150;17.142;2023-07-22T06:12:31;23.00;67.70
12309;DHT22;6217;48.150;17.142;2023-07-22T06:16:37;23.20;66.80
12309;DHT22;6217;48.150;17.142;2023-07-22T06:20:43;23.40;66.20
12309;DHT22;6217;48.150;17.142;2023-07-22T06:24:49;23.50;65.60
12309;DHT22;6217;48.150;17.142;2023-07-22T06:28:55;23.60;65.10
12309;DHT22;6217;48.150;17.142;2023-07-22T06:33:00;23.70;64.50
12309;DHT22;6217;48.150;17.142;2023-07-22T06:37:06;23.80;64.00
12309;DHT22;6217;48.150;17.142;2023-07-22T06:41:12;24.00;64.20
12309;DHT22;6217;48.150;17.142;2023-07-22T06:45:19;24.50;64.10
12309;DHT22;6217;48.150;17.142;2023-07-22T06:49:24;24.90;63.30
12309;DHT22;6217;48.150;17.142;2023-07-22T06:53:30;25.30;62.30
12309;DHT22;6217;48.150;17.142;2023-07-22T06:57:37;25.50;61.60
12309;DHT22;6217;48.150;17.142;2023-07-22T07:01:43;25.50;60.60
12309;DHT22;6217;48.150;17.142;2023-07-22T07:05:55;25.40;59.80
12309;DHT22;6217;48.150;17.142;2023-07-22T07:10:02;25.30;59.30
12309;DHT22;6217;48.150;17.142;2023-07-22T07:14:08;25.10;59.30
12309;DHT22;6217;48.150;17.142;2023-07-22T07:18:13;24.90;59.30
12309;DHT22;6217;48.150;17.142;2023-07-22T07:22:19;24.70;59.40
12309;DHT22;6217;48.150;17.142;2023-07-22T07:26:25;24.70;59.30
12309;DHT22;6217;48.150;17.142;2023-07-22T07:30:31;24.70;59.30
12309;DHT22;6217;48.150;17.142;2023-07-22T07:34:38;24.80;58.90
12309;DHT22;6217;48.150;17.142;2023-07-22T07:38:43;24.90;58.60
12309;DHT22;6217;48.150;17.142;2023-07-22T07:42:49;24.90;58.20
12309;DHT22;6217;48.150;17.142;2023-07-22T07:46:55;24.90;58.00
12309;DHT22;6217;48.150;17.142;2023-07-22T07:51:01;25.00;57.40
12309;DHT22;6217;48.150;17.142;2023-07-22T07:55:07;25.10;57.10
12309;DHT22;6217;48.150;17.142;2023-07-22T07:59:13;25.30;56.70
12309;DHT22;6217;48.150;17.142;2023-07-22T08:03:19;25.20;55.70
12309;DHT22;6217;48.150;17.142;2023-07-22T08:07:26;25.30;54.80
12309;DHT22;6217;48.150;17.142;2023-07-22T08:11:32;25.80;54.00
12309;DHT22;6217;48.150;17.142;2023-07-22T08:15:38;26.60;52.80
12309;DHT22;6217;48.150;17.142;2023-07-22T08:19:43;27.90;50.40
12309;DHT22;6217;48.150;17.142;2023-07-22T08:23:49;28.00;48.00
12309;DHT22;6217;48.150;17.142;2023-07-22T08:27:55;27.20;48.60
12309;DHT22;6217;48.150;17.142;2023-07-22T08:32:01;26.40;49.80
12309;DHT22;6217;48.150;17.142;2023-07-22T08:36:08;26.20;50.60
12309;DHT22;6217;48.150;17.142;2023-07-22T08:40:14;26.10;50.60
12309;DHT22;6217;48.150;17.142;2023-07-22T08:44:21;26.00;50.70
12309;DHT22;6217;48.150;17.142;2023-07-22T08:48:29;26.10;50.70
12309;DHT22;6217;48.150;17.142;2023-07-22T08:52:40;26.30;50.40
12309;DHT22;6217;48.150;17.142;2023-07-22T08:56:46;26.50;50.10
12309;DHT22;6217;48.150;17.142;2023-07-22T09:00:52;26.60;49.40
12309;DHT22;6217;48.150;17.142;2023-07-22T09:04:58;26.80;49.20
12309;DHT22;6217;48.150;17.142;2023-07-22T09:09:04;26.90;49.10
12309;DHT22;6217;48.150;17.142;2023-07-22T09:13:13;27.00;48.90
12309;DHT22;6217;48.150;17.142;2023-07-22T09:17:20;27.10;48.60
12309;DHT22;6217;48.150;17.142;2023-07-22T09:21:26;27.30;47.90
12309;DHT22;6217;48.150;17.142;2023-07-22T09:25:33;27.20;47.70
12309;DHT22;6217;48.150;17.142;2023-07-22T09:29:39;27.30;47.20
12309;DHT22;6217;48.150;17.142;2023-07-22T09:33:45;27.40;46.60
12309;DHT22;6217;48.150;17.142;2023-07-22T09:37:53;27.50;46.20
12309;DHT22;6217;48.150;17.142;2023-07-22T09:41:59;27.60;45.90
12309;DHT22;6217;48.150;17.142;2023-07-22T09:46:11;27.70;45.60
12309;DHT22;6217;48.150;17.142;2023-07-22T09:50:24;27.60;45.20
12309;DHT22;6217;48.150;17.142;2023-07-22T09:54:32;27.50;44.90
12309;DHT22;6217;48.150;17.142;2023-07-22T09:58:39;27.60;44.70
12309;DHT22;6217;48.150;17.142;2023-07-22T10:02:47;27.60;44.20
12309;DHT22;6217;48.150;17.142;2023-07-22T10:06:55;27.60;43.80
12309;DHT22;6217;48.150;17.142;2023-07-22T10:11:03;27.60;43.80
12309;DHT22;6217;48.150;17.142;2023-07-22T10:15:14;27.70;43.70
12309;DHT22;6217;48.150;17.142;2023-07-22T10:19:23;27.60;43.40
12309;DHT22;6217;48.150;17.142;2023-07-22T10:23:31;27.70;43.20
12309;DHT22;6217;48.150;17.142;2023-07-22T10:27:38;27.60;42.80
12309;DHT22;6217;48.150;17.142;2023-07-22T10:31:48;27.70;42.70
12309;DHT22;6217;48.150;17.142;2023-07-22T10:36:09;27.80;43.30
12309;DHT22;6217;48.150;17.142;2023-07-22T10:40:27;27.90;42.00
12309;DHT22;6217;48.150;17.142;2023-07-22T10:44:40;28.00;41.60
12309;DHT22;6217;48.150;17.142;2023-07-22T10:48:46;28.00;41.60
12309;DHT22;6217;48.150;17.142;2023-07-22T10:52:53;28.00;41.40
12309;DHT22;6217;48.150;17.142;2023-07-22T10:57:03;28.10;40.80
12309;DHT22;6217;48.150;17.142;2023-07-22T11:05:53;28.20;39.60
12309;DHT22;6217;48.150;17.142;2023-07-22T11:10:18;28.20;39.80
12309;DHT22;6217;48.150;17.142;2023-07-22T11:14:28;28.30;39.90
12309;DHT22;6217;48.150;17.142;2023-07-22T11:18:42;28.40;40.30
12309;DHT22;6217;48.150;17.142;2023-07-22T11:22:50;28.50;39.50
12309;DHT22;6217;48.150;17.142;2023-07-22T11:26:56;28.40;39.50
12309;DHT22;6217;48.150;17.142;2023-07-22T11:31:02;28.40;39.50
12309;DHT22;6217;48.150;17.142;2023-07-22T11:35:08;28.40;39.80
12309;DHT22;6217;48.150;17.142;2023-07-22T11:39:16;28.40;39.60
12309;DHT22;6217;48.150;17.142;2023-07-22T11:43:24;28.30;38.90
12309;DHT22;6217;48.150;17.142;2023-07-22T11:47:30;28.20;38.50
12309;DHT22;6217;48.150;17.142;2023-07-22T11:51:42;28.10;38.60
12309;DHT22;6217;48.150;17.142;2023-07-22T11:55:48;28.30;38.90
12309;DHT22;6217;48.150;17.142;2023-07-22T11:59:56;28.30;38.30
12309;DHT22;6217;48.150;17.142;2023-07-22T12:04:13;28.20;38.10
12309;DHT22;6217;48.150;17.142;2023-07-22T12:08:19;28.20;38.10
12309;DHT22;6217;48.150;17.142;2023-07-22T12:12:51;28.20;38.20
12309;DHT22;6217;48.150;17.142;2023-07-22T12:16:58;28.20;37.70
12309;DHT22;6217;48.150;17.142;2023-07-22T12:21:05;28.20;37.80
12309;DHT22;6217;48.150;17.142;2023-07-22T12:25:11;28.30;37.80
12309;DHT22;6217;48.150;17.142;2023-07-22T12:29:16;28.20;37.80
12309;DHT22;6217;48.150;17.142;2023-07-22T12:33:23;28.20;37.90
12309;DHT22;6217;48.150;17.142;2023-07-22T12:37:33;28.00;37.90
12309;DHT22;6217;48.150;17.142;2023-07-22T12:41:39;28.00;37.90
12309;DHT22;6217;48.150;17.142;2023-07-22T12:45:45;28.00;38.00
12309;DHT22;6217;48.150;17.142;2023-07-22T12:49:51;28.00;38.10
12309;DHT22;6217;48.150;17.142;2023-07-22T12:53:57;28.00;38.20
12309;DHT22;6217;48.150;17.142;2023-07-22T12:58:02;28.10;37.90
12309;DHT22;6217;48.150;17.142;2023-07-22T13:02:08;28.20;37.50
12309;DHT22;6217;48.150;17.142;2023-07-22T13:06:14;28.20;37.20
12309;DHT22;6217;48.150;17.142;2023-07-22T13:10:20;28.20;37.00
12309;DHT22;6217;48.150;17.142;2023-07-22T13:14:31;28.20;36.90
12309;DHT22;6217;48.150;17.142;2023-07-22T13:18:37;28.30;36.80
12309;DHT22;6217;48.150;17.142;2023-07-22T13:22:43;28.30;36.70
12309;DHT22;6217;48.150;17.142;2023-07-22T13:26:48;28.40;36.50
12309;DHT22;6217;48.150;17.142;2023-07-22T13:30:54;28.40;36.80
12309;DHT22;6217;48.150;17.142;2023-07-22T13:35:00;28.50;36.30
12309;DHT22;6217;48.150;17.142;2023-07-22T13:39:06;28.50;36.60
12309;DHT22;6217;48.150;17.142;2023-07-22T13:43:12;28.60;36.50
12309;DHT22;6217;48.150;17.142;2023-07-22T13:47:18;28.70;36.20
12309;DHT22;6217;48.150;17.142;2023-07-22T13:51:24;28.70;36.00
12309;DHT22;6217;48.150;17.142;2023-07-22T13:55:30;28.70;35.90
12309;DHT22;6217;48.150;17.142;2023-07-22T13:59:36;28.80;36.20
12309;DHT22;6217;48.150;17.142;2023-07-22T14:03:42;28.70;36.40
12309;DHT22;6217;48.150;17.142;2023-07-22T14:07:47;28.70;36.70
12309;DHT22;6217;48.150;17.142;2023-07-22T14:11:53;28.60;36.30
12309;DHT22;6217;48.150;17.142;2023-07-22T14:16:00;28.60;36.30
12309;DHT22;6217;48.150;17.142;2023-07-22T14:20:07;28.60;36.30
12309;DHT22;6217;48.150;17.142;2023-07-22T14:24:13;28.50;36.30
12309;DHT22;6217;48.150;17.142;2023-07-22T14:28:19;28.40;36.20
12309;DHT22;6217;48.150;17.142;2023-07-22T14:32:25;28.40;36.40
12309;DHT22;6217;48.150;17.142;2023-07-22T14:36:30;28.40;36.70
12309;DHT22;6217;48.150;17.142;2023-07-22T14:40:37;28.30;36.40
12309;DHT22;6217;48.150;17.142;2023-07-22T14:44:42;28.20;36.40
12309;DHT22;6217;48.150;17.142;2023-07-22T14:48:49;28.30;36.30
12309;DHT22;6217;48.150;17.142;2023-07-22T14:52:54;28.20;36.10
12309;DHT22;6217;48.150;17.142;2023-07-22T14:57:00;28.10;35.90
12309;DHT22;6217;48.150;17.142;2023-07-22T15:01:06;28.10;35.90
12309;DHT22;6217;48.150;17.142;2023-07-22T15:05:14;28.00;35.80
12309;DHT22;6217;48.150;17.142;2023-07-22T15:09:20;28.00;36.00
12309;DHT22;6217;48.150;17.142;2023-07-22T15:13:26;28.10;36.10
12309;DHT22;6217;48.150;17.142;2023-07-22T15:17:32;28.10;36.10
12309;DHT22;6217;48.150;17.142;2023-07-22T15:21:38;28.10;36.20
12309;DHT22;6217;48.150;17.142;2023-07-22T15:25:44;28.10;36.20
12309;DHT22;6217;48.150;17.142;2023-07-22T15:29:50;28.20;36.10
12309;DHT22;6217;48.150;17.142;2023-07-22T15:33:56;28.30;36.20
12309;DHT22;6217;48.150;17.142;2023-07-22T15:38:02;28.40;36.10
12309;DHT22;6217;48.150;17.142;2023-07-22T15:42:08;28.30;35.90
12309;DHT22;6217;48.150;17.142;2023-07-22T15:46:14;28.30;35.80
12309;DHT22;6217;48.150;17.142;2023-07-22T15:50:20;28.20;35.90
12309;DHT22;6217;48.150;17.142;2023-07-22T15:54:25;28.10;36.00
12309;DHT22;6217;48.150;17.142;2023-07-22T15:58:31;28.10;36.00
12309;DHT22;6217;48.150;17.142;2023-07-22T16:02:37;28.00;35.80
12309;DHT22;6217;48.150;17.142;2023-07-22T16:06:44;28.00;35.90
12309;DHT22;6217;48.150;17.142;2023-07-22T16:10:50;28.00;36.00
12309;DHT22;6217;48.150;17.142;2023-07-22T16:14:56;28.10;36.00
12309;DHT22;6217;48.150;17.142;2023-07-22T16:19:01;28.10;36.10
12309;DHT22;6217;48.150;17.142;2023-07-22T16:23:08;28.00;36.20
12309;DHT22;6217;48.150;17.142;2023-07-22T16:27:14;27.90;36.20
12309;DHT22;6217;48.150;17.142;2023-07-22T16:31:20;27.80;36.30
12309;DHT22;6217;48.150;17.142;2023-07-22T16:35:26;27.90;36.30
12309;DHT22;6217;48.150;17.142;2023-07-22T16:39:34;27.80;36.30
12309;DHT22;6217;48.150;17.142;2023-07-22T16:43:40;27.80;36.50
12309;DHT22;6217;48.150;17.142;2023-07-22T16:47:46;27.70;36.60
12309;DHT22;6217;48.150;17.142;2023-07-22T16:51:52;27.60;37.00
12309;DHT22;6217;48.150;17.142;2023-07-22T16:55:57;27.60;37.40
12309;DHT22;6217;48.150;17.142;2023-07-22T17:00:04;27.50;37.60
12309;DHT22;6217;48.150;17.142;2023-07-22T17:04:11;27.50;38.00
12309;DHT22;6217;48.150;17.142;2023-07-22T17:08:17;27.50;38.20
12309;DHT22;6217;48.150;17.142;2023-07-22T17:12:23;27.40;38.10
12309;DHT22;6217;48.150;17.142;2023-07-22T17:16:28;27.40;37.80
12309;DHT22;6217;48.150;17.142;2023-07-22T17:20:36;27.40;38.00
12309;DHT22;6217;48.150;17.142;2023-07-22T17:24:42;27.30;37.80
12309;DHT22;6217;48.150;17.142;2023-07-22T17:28:48;27.30;37.90
12309;DHT22;6217;48.150;17.142;2023-07-22T17:32:54;27.30;38.30
12309;DHT22;6217;48.150;17.142;2023-07-22T17:37:00;27.20;39.00
12309;DHT22;6217;48.150;17.142;2023-07-22T17:41:06;27.10;39.70
12309;DHT22;6217;48.150;17.142;2023-07-22T17:45:12;27.00;40.80
12309;DHT22;6217;48.150;17.142;2023-07-22T17:49:17;26.90;41.20
12309;DHT22;6217;48.150;17.142;2023-07-22T17:53:23;26.90;41.60
12309;DHT22;6217;48.150;17.142;2023-07-22T17:57:29;26.80;41.90
12309;DHT22;6217;48.150;17.142;2023-07-22T18:01:35;26.70;42.20
12309;DHT22;6217;48.150;17.142;2023-07-22T18:05:47;26.60;42.60
12309;DHT22;6217;48.150;17.142;2023-07-22T18:09:53;26.50;42.70
12309;DHT22;6217;48.150;17.142;2023-07-22T18:13:59;26.50;42.90
12309;DHT22;6217;48.150;17.142;2023-07-22T18:18:05;26.40;43.40
12309;DHT22;6217;48.150;17.142;2023-07-22T18:22:11;26.30;43.70
12309;DHT22;6217;48.150;17.142;2023-07-22T18:26:17;26.20;44.00
12309;DHT22;6217;48.150;17.142;2023-07-22T18:30:23;26.20;44.10
12309;DHT22;6217;48.150;17.142;2023-07-22T18:34:29;26.10;44.40
12309;DHT22;6217;48.150;17.142;2023-07-22T18:38:35;26.10;44.60
12309;DHT22;6217;48.150;17.142;2023-07-22T18:42:41;26.00;44.70
12309;DHT22;6217;48.150;17.142;2023-07-22T18:46:47;25.90;45.10
12309;DHT22;6217;48.150;17.142;2023-07-22T18:50:54;25.80;45.90
12309;DHT22;6217;48.150;17.142;2023-07-22T18:55:01;25.70;45.50
12309;DHT22;6217;48.150;17.142;2023-07-22T18:59:07;25.70;45.60
12309;DHT22;6217;48.150;17.142;2023-07-22T19:03:13;25.60;45.80
12309;DHT22;6217;48.150;17.142;2023-07-22T19:07:18;25.60;46.00
12309;DHT22;6217;48.150;17.142;2023-07-22T19:11:24;25.50;46.10
12309;DHT22;6217;48.150;17.142;2023-07-22T19:15:32;25.50;46.20
12309;DHT22;6217;48.150;17.142;2023-07-22T19:19:38;25.50;46.40
12309;DHT22;6217;48.150;17.142;2023-07-22T19:23:47;25.40;46.80
12309;DHT22;6217;48.150;17.142;2023-07-22T19:27:55;25.20;47.50
12309;DHT22;6217;48.150;17.142;2023-07-22T19:32:01;25.10;48.50
12309;DHT22;6217;48.150;17.142;2023-07-22T19:36:09;25.00;49.60
12309;DHT22;6217;48.150;17.142;2023-07-22T19:40:16;24.90;50.50
12309;DHT22;6217;48.150;17.142;2023-07-22T19:44:22;24.80;51.00
12309;DHT22;6217;48.150;17.142;2023-07-22T19:48:29;24.70;51.40
12309;DHT22;6217;48.150;17.142;2023-07-22T19:52:37;24.60;51.90
12309;DHT22;6217;48.150;17.142;2023-07-22T19:56:43;24.60;52.20
12309;DHT22;6217;48.150;17.142;2023-07-22T20:00:51;24.50;52.70
12309;DHT22;6217;48.150;17.142;2023-07-22T20:04:58;24.50;53.00
12309;DHT22;6217;48.150;17.142;2023-07-22T20:09:03;24.50;53.20
12309;DHT22;6217;48.150;17.142;2023-07-22T20:13:09;24.40;53.60
12309;DHT22;6217;48.150;17.142;2023-07-22T20:17:15;24.40;54.10
12309;DHT22;6217;48.150;17.142;2023-07-22T20:21:21;24.30;54.50
12309;DHT22;6217;48.150;17.142;2023-07-22T20:25:27;24.20;54.70
12309;DHT22;6217;48.150;17.142;2023-07-22T20:29:33;24.20;55.00
12309;DHT22;6217;48.150;17.142;2023-07-22T20:33:39;24.10;55.90
12309;DHT22;6217;48.150;17.142;2023-07-22T20:37:45;24.10;55.60
12309;DHT22;6217;48.150;17.142;2023-07-22T20:41:51;24.00;56.20
12309;DHT22;6217;48.150;17.142;2023-07-22T20:46:01;23.90;56.50
12309;DHT22;6217;48.150;17.142;2023-07-22T20:50:09;23.90;56.90
12309;DHT22;6217;48.150;17.142;2023-07-22T20:54:16;23.80;57.00
12309;DHT22;6217;48.150;17.142;2023-07-22T20:58:22;23.70;57.40
12309;DHT22;6217;48.150;17.142;2023-07-22T21:02:27;23.70;57.60
12309;DHT22;6217;48.150;17.142;2023-07-22T21:06:33;23.60;57.90
12309;DHT22;6217;48.150;17.142;2023-07-22T21:10:42;23.60;58.10
12309;DHT22;6217;48.150;17.142;2023-07-22T21:14:48;23.60;58.40
12309;DHT22;6217;48.150;17.142;2023-07-22T21:18:54;23.50;58.90
12309;DHT22;6217;48.150;17.142;2023-07-22T21:23:00;23.40;59.10
12309;DHT22;6217;48.150;17.142;2023-07-22T21:27:06;23.40;59.20
12309;DHT22;6217;48.150;17.142;2023-07-22T21:31:12;23.40;59.40
12309;DHT22;6217;48.150;17.142;2023-07-22T21:35:18;23.30;59.70
12309;DHT22;6217;48.150;17.142;2023-07-22T21:39:24;23.30;59.90
12309;DHT22;6217;48.150;17.142;2023-07-22T21:43:32;23.30;60.10
12309;DHT22;6217;48.150;17.142;2023-07-22T21:47:38;23.30;60.30
12309;DHT22;6217;48.150;17.142;2023-07-22T21:51:43;23.30;60.40
12309;DHT22;6217;48.150;17.142;2023-07-22T21:55:50;23.20;60.40
12309;DHT22;6217;48.150;17.142;2023-07-22T21:59:56;23.20;60.50
12309;DHT22;6217;48.150;17.142;2023-07-22T22:04:02;23.20;60.60
12309;DHT22;6217;48.150;17.142;2023-07-22T22:08:08;23.20;60.80
12309;DHT22;6217;48.150;17.142;2023-07-22T22:12:13;23.20;60.80
12309;DHT22;6217;48.150;17.142;2023-07-22T22:16:19;23.20;60.90
12309;DHT22;6217;48.150;17.142;2023-07-22T22:20:25;23.20;60.90
12309;DHT22;6217;48.150;17.142;2023-07-22T22:24:31;23.10;61.00
12309;DHT22;6217;48.150;17.142;2023-07-22T22:28:38;23.10;61.10
12309;DHT22;6217;48.150;17.142;2023-07-22T22:32:44;23.00;61.60
12309;DHT22;6217;48.150;17.142;2023-07-22T22:36:50;22.90;61.80
12309;DHT22;6217;48.150;17.142;2023-07-22T22:40:56;22.90;61.80
12309;DHT22;6217;48.150;17.142;2023-07-22T22:45:02;22.90;62.00
12309;DHT22;6217;48.150;17.142;2023-07-22T22:49:08;22.70;62.50
12309;DHT22;6217;48.150;17.142;2023-07-22T22:53:14;22.60;63.10
12309;DHT22;6217;48.150;17.142;2023-07-22T22:57:20;22.60;63.20
12309;DHT22;6217;48.150;17.142;2023-07-22T23:01:26;22.60;63.30
12309;DHT22;6217;48.150;17.142;2023-07-22T23:05:32;22.60;63.50
12309;DHT22;6217;48.150;17.142;2023-07-22T23:09:38;22.60;63.60
12309;DHT22;6217;48.150;17.142;2023-07-22T23:13:44;22.50;63.80
12309;DHT22;6217;48.150;17.142;2023-07-22T23:17:51;22.50;64.00
12309;DHT22;6217;48.150;17.142;2023-07-22T23:21:57;22.40;64.30
12309;DHT22;6217;48.150;17.142;2023-07-22T23:26:03;22.30;64.50
12309;DHT22;6217;48.150;17.142;2023-07-22T23:30:09;22.30;64.80
12309;DHT22;6217;48.150;17.142;2023-07-22T23:34:15;22.20;65.00
12309;DHT22;6217;48.150;17.142;2023-07-22T23:38:22;22.30;65.20
12309;DHT22;6217;48.150;17.142;2023-07-22T23:42:28;22.20;65.40
12309;DHT22;6217;48.150;17.142;2023-07-22T23:46:34;22.20;65.60
12309;DHT22;6217;48.150;17.142;2023-07-22T23:50:40;22.20;66.30
12309;DHT22;6217;48.150;17.142;2023-07-22T23:54:46;22.10;66.30
12309;DHT22;6217;48.150;17.142;2023-07-22T23:58:52;22.10;66.60
